Friday, January 19, 2018, 7:38 AM GMT
Back to Local

CYYY, Mont Joli, Que.

Location: , , Canada Lat: 48.6
Local Time: 7:38 AM GMT ( 7:38 GMT) Lon: -68.217
Time Zone: GMT Elev: 157 ft

Show me the last for .
Show Decoded

2018-01-19 07:00 METAR CYYY 190700Z 34007KT 15SM OVC028 M11/M16 A2987 RMK SC8 SLP122 =
2018-01-19 06:00 METAR CYYY 190600Z 35009KT 15SM OVC027 M11/M15 A2986 RMK SC8 SLP117 =
2018-01-19 05:00 METAR CYYY 190500Z 31007KT 15SM OVC025 M10/M15 A2988 RMK SC8 SLP122 =
2018-01-19 04:00 METAR CYYY 190400Z 32006KT 15SM OVC029 M10/M15 A2988 RMK SC8 SLP123 =
2018-01-19 03:00 METAR CYYY 190300Z 32009KT 15SM OVC030 M10/M15 A2987 RMK SC8 SLP120 =
2018-01-19 02:23 METAR CYYY 190223Z 34014KT 15SM OVC030 M10/M16 A2986 RMK SC8 SLP119 =
2018-01-19 02:00 METAR CYYY 190200Z 33011G17KT 15SM -SN OVC034 M10/M15 A2986 RMK SC8 SLP117 =
2018-01-19 01:00 METAR CYYY 190100Z 33011KT 15SM -SN OVC030 M09/M15 A2984 RMK SC8 SLP112 =
2018-01-19 00:24 METAR CYYY 190024Z 33012KT 15SM -SN OVC028 M09/M14 A2985 RMK SC8 SLP113 =
2018-01-19 00:00 METAR CYYY 190000Z 33012G17KT 15SM OVC030 M09/M14 A2984 RMK SC8 SLP112 =
2018-01-18 23:00 METAR CYYY 182300Z 33016KT 15SM BKN035 M09/M13 A2982 RMK SC6 SLP103 =
2018-01-18 22:00 METAR CYYY 182200Z 33016G21KT 15SM BKN032 M07/M12 A2979 RMK SC6 SLP093 =
2018-01-18 21:00 METAR CYYY 182100Z 31017G22KT 15SM BKN032 M06/M11 A2977 RMK SC7 SLP085 =
2018-01-18 20:51 METAR CYYY 182051Z 31018G23KT 15SM DRSN BKN032 M06/M12 A2976 RMK SC7 SLP082 =
2018-01-18 20:00 METAR CYYY 182000Z 32019KT 15SM -SN DRSN BKN032 M05/M10 A2973 RMK SC7 SLP073 =
2018-01-18 19:09 METAR CYYY 181909Z 26017G24KT 10SM -SN DRSN BKN030 OVC055 M04/M09 A2970 RMK
                 SC6SC2 SLP064 =
2018-01-18 19:00 METAR CYYY 181900Z 25014G20KT 10SM DRSN BKN030 OVC055 M04/M08 A2971 RMK SC6SC2
                 SLP065 =
2018-01-18 18:00 METAR CYYY 181800Z 24018G27KT 15SM SCT032 BKN060 BKN160 M04/M08 A2969 RMK
                 SC4SC2AC1 SLP059 =
2018-01-18 17:00 METAR CYYY 181700Z 24017G23KT 30SM FEW024 SCT160 M04/M09 A2970 RMK SC2AC1 SLP064
                 =
2018-01-18 16:00 METAR CYYY 181600Z 23013G19KT 15SM FEW032 SCT200 M05/M09 A2970 RMK SC1CI3 SLP064
                 =
2018-01-18 15:00 METAR CYYY 181500Z 23013G21KT 30SM FEW032 FEW064 BKN180 M05/M10 A2972 RMK
                 SC1SC2CI4 SC TR SLP068 =
2018-01-18 14:00 METAR CYYY 181400Z 22011G19KT 15SM BKN063 M06/M10 A2972 RMK SC7 SLP068 =
2018-01-18 13:00 METAR CYYY 181300Z 21012G19KT 15SM BKN065 M07/M10 A2972 RMK SC7 SLP069 =
2018-01-18 12:00 METAR CYYY 181200Z 21012G22KT 15SM FEW057 OVC070 M07/M10 A2972 RMK SC2AC6 SLP071
                 =
2018-01-18 11:40 METAR CYYY 181140Z 21013G20KT 15SM FEW057 OVC080 M07/M11 A2972 RMK SC2AC6 SLP071
                 =
2018-01-18 11:00 METAR CYYY 181100Z 21013G18KT 15SM -SN SCT055 BKN085 M07/M10 A2973 RMK SC4AC3
                 SLP073 =
2018-01-18 10:00 METAR CYYY 181000Z 21011G17KT 10SM -SN BKN055 BKN090 M07/M10 A2975 RMK SC5AC2
                 SLP078 =
2018-01-18 09:00 METAR CYYY 180900Z 21013G18KT 15SM -SN SCT050 BKN110 M07/M11 A2977 RMK SC4AC3
                 SLP086 =
2018-01-18 08:00 METAR CYYY 180800Z 21010G20KT 10SM -SN BKN055 M07/M10 A2980 RMK SC7 SLP095 =

Support USWX by starting your Amazon purchase here.